Home   Weather   West Kirby   Past weeks
Flag for United Kingdom

Past Weather in West Kirby, England, United Kingdom — Yesterday and Last 2 Weeks

Currently: 50 °F. Sunny. (Weather station: Liverpool Airport, United Kingdom). See more current weather

Past Weather in West Kirby — Graph

°F

West Kirby Temperature Yesterday

Maximum temperature yesterday: 55 °F (at 1:50 pm)
Minimum temperature yesterday: 43 °F (at 10:50 pm)
Average temperature yesterday: 50 °F

High & Low Weather Summary for the Past Weeks

 TemperatureHumidityPressure
High63 °F (Apr 6, 1:20 pm)100% (Apr 8, 6:50 am)30.42 "Hg (Apr 8, 6:50 am)
Low36 °F (Apr 20, 5:20 am)39% (Apr 20, 4:20 pm)29.27 "Hg (Apr 6, 9:50 am)
Average51 °F76%29.93 "Hg
* Reported Apr 5 6:20 pm — Apr 20 6:50 pm, West Kirby. Weather by CustomWeather, © 2024

Note: Actual official high and low records may vary slightly from our data, if they occured in-between our weather recording intervals... More about our weather records

West Kirby Weather History for the Previous 24 Hours

Scroll right to see more
 ConditionsComfort  
Time TempWeatherWind HumidityBarometerVisibility
6:50 pm
Sat, Apr 20
54 °FSunny.9 mph51%30.39 "Hg10 mi
6:20 pm54 °FPassing clouds.10 mph47%30.39 "HgN/A
5:50 pm55 °FPassing clouds.9 mph41%30.39 "HgN/A
5:20 pm55 °FScattered clouds.10 mph41%30.39 "HgN/A
4:50 pm57 °FScattered clouds.9 mph39%30.39 "HgN/A
4:20 pm57 °FScattered clouds.12 mph39%30.42 "HgN/A
3:50 pm55 °FScattered clouds.10 mph41%30.42 "HgN/A
3:20 pm55 °FScattered clouds.9 mph41%30.42 "HgN/A
2:50 pm55 °FScattered clouds.8 mph41%30.42 "HgN/A
1:50 pm54 °FScattered clouds.6 mph44%30.42 "HgN/A
1:20 pm52 °FPassing clouds.5 mph50%30.42 "HgN/A
12:50 pm52 °FPassing clouds.5 mph50%30.42 "HgN/A
12:20 pm50 °FPassing clouds.5 mph50%30.42 "HgN/A
11:50 am50 °FPassing clouds.5 mph54%30.42 "HgN/A
11:20 am50 °FPassing clouds.6 mph50%30.42 "HgN/A
10:50 am50 °FPassing clouds.5 mph54%30.42 "HgN/A
10:20 am48 °FSunny.2 mph62%30.42 "Hg10 mi
9:20 am46 °FSunny.2 mph66%30.42 "Hg10 mi
8:50 am45 °FSunny.1 mph76%30.42 "Hg10 mi
8:20 am43 °FSunny.1 mph76%30.42 "Hg10 mi
7:50 am43 °FSunny.2 mph87%30.39 "Hg10 mi
7:20 am39 °FSunny.2 mph87%30.39 "Hg10 mi
6:50 am37 °FPassing clouds.3 mph93%30.39 "HgN/A
5:50 am37 °FClear.2 mph93%30.36 "Hg10 mi
5:20 am36 °FClear.2 mph93%30.36 "Hg10 mi
4:50 am37 °FChilly.2 mph93%30.36 "HgN/A
4:20 am37 °FChilly.2 mph87%30.36 "HgN/A
3:50 am39 °FChilly.1 mph75%30.33 "HgN/A
3:20 am39 °FChilly.1 mph75%30.33 "HgN/A
2:20 am37 °FChilly.5 mph81%30.33 "HgN/A
1:50 am39 °FClear.6 mph75%30.33 "Hg10 mi
1:20 am41 °FPassing clouds.3 mph76%30.33 "HgN/A
12:50 am41 °FClear.5 mph76%30.30 "Hg10 mi
12:20 am41 °FClear.3 mph76%30.30 "Hg10 mi
11:50 pm
Fri, Apr 19
43 °FClear.3 mph76%30.30 "Hg10 mi
10:50 pm43 °FClear.6 mph76%30.27 "Hg10 mi
10:20 pm45 °FClear.9 mph71%30.27 "Hg10 mi
9:50 pm46 °FPassing clouds.12 mph71%30.24 "HgN/A
9:20 pm48 °FClear.8 mph76%30.24 "Hg10 mi
8:50 pm50 °FPassing clouds.10 mph67%30.21 "HgN/A
Weather by CustomWeather, © 2024

See weather overview